Time;durP1;ratioP1;P1;durP2;ratioP2;P2;SDS_P1;SDS_P2;PMS_P1;PMS_P2;Temp;Humidity;BMP_temperature;BMP_pressure;BME280_temperature;BME280_humidity;BME280_pressure;Samples;Min_cycle;Max_cycle;Signal;HPM_P1;HPM_P2
2023/05/19 00:01:07;;;;;;;7.20;5.97;;;17.20;99.90;;;;;;5095656;28;20444;-86
2023/05/19 00:03:36;;;;;;;16.40;9.57;;;17.10;99.90;;;;;;5095638;28;20423;-81
2023/05/19 00:06:03;;;;;;;9.40;7.63;;;17.00;99.90;;;;;;5114066;28;20440;-86
2023/05/19 00:08:33;;;;;;;11.47;8.97;;;17.00;99.90;;;;;;5114159;28;20901;-81
2023/05/19 00:11:00;;;;;;;8.17;7.37;;;16.80;99.90;;;;;;5114409;28;20486;-82
2023/05/19 00:13:26;;;;;;;8.40;4.87;;;16.80;99.90;;;;;;5113905;28;20403;-86
2023/05/19 00:15:52;;;;;;;4.70;4.13;;;16.80;99.90;;;;;;5095468;28;20801;-86
2023/05/19 00:18:19;;;;;;;5.07;4.57;;;16.80;99.90;;;;;;5130194;28;20793;-86
2023/05/19 00:20:45;;;;;;;4.53;3.53;;;16.80;99.90;;;;;;5130909;28;20810;-81
2023/05/19 00:23:11;;;;;;;4.27;3.63;;;16.80;99.90;;;;;;5113955;28;20400;-86
2023/05/19 00:25:36;;;;;;;5.13;4.63;;;16.70;99.90;;;;;;5095634;28;20439;-86
2023/05/19 00:28:02;;;;;;;4.80;3.60;;;16.60;99.90;;;;;;5113800;28;20424;-81
2023/05/19 00:30:29;;;;;;;5.10;3.80;;;16.60;99.90;;;;;;5113626;28;20215;-81
2023/05/19 00:32:55;;;;;;;4.17;3.77;;;16.50;99.90;;;;;;5095625;28;20636;-81
2023/05/19 00:35:22;;;;;;;3.97;3.67;;;16.40;99.90;;;;;;5113725;28;20439;-86
2023/05/19 00:37:47;;;;;;;4.13;3.40;;;16.40;99.90;;;;;;5113742;28;20456;-86
2023/05/19 00:40:13;;;;;;;3.30;3.00;;;16.40;99.90;;;;;;5095346;28;20498;-85
2023/05/19 00:42:40;;;;;;;3.70;3.40;;;16.40;99.90;;;;;;5095741;28;20184;-85
2023/05/19 00:45:07;;;;;;;4.60;4.20;;;16.40;99.90;;;;;;5116412;28;20424;-81
2023/05/19 00:47:33;;;;;;;4.90;3.80;;;16.40;99.90;;;;;;5099536;28;20419;-81
2023/05/19 00:49:59;;;;;;;4.03;3.73;;;16.30;99.90;;;;;;5117309;28;20434;-86
2023/05/19 00:52:25;;;;;;;4.10;3.70;;;16.30;99.90;;;;;;5099384;28;20444;-81
2023/05/19 00:54:52;;;;;;;3.90;3.37;;;16.30;99.90;;;;;;5098986;28;20479;-86
2023/05/19 00:57:19;;;;;;;4.50;3.77;;;16.20;99.90;;;;;;5117799;28;20462;-83
2023/05/19 00:59:46;;;;;;;3.93;3.50;;;16.20;99.90;;;;;;5117213;28;20487;-81
2023/05/19 01:02:12;;;;;;;4.60;3.67;;;16.20;99.90;;;;;;5133279;27;20423;-81
2023/05/19 01:04:40;;;;;;;3.07;2.87;;;16.10;99.90;;;;;;5098919;28;20416;-86
2023/05/19 01:07:06;;;;;;;4.23;3.57;;;16.10;99.90;;;;;;5098926;28;20424;-86
2023/05/19 01:09:32;;;;;;;4.93;3.27;;;16.10;99.90;;;;;;5098783;28;20484;-82
2023/05/19 01:11:59;;;;;;;4.33;3.93;;;16.00;99.90;;;;;;5117410;28;20419;-86
2023/05/19 01:14:25;;;;;;;4.90;4.17;;;15.90;99.90;;;;;;5098792;28;20434;-81
2023/05/19 01:17:04;;;;;;;4.53;4.13;;;15.90;99.90;;;;;;5117667;28;20468;-86
2023/05/19 01:19:42;;;;;;;5.47;3.67;;;15.80;99.90;;;;;;5133176;27;20215;-81
2023/05/19 01:22:21;;;;;;;9.50;4.47;;;15.80;99.90;;;;;;5117268;28;20830;-86
2023/05/19 01:25:24;;;;;;;5.13;4.17;;;15.80;99.90;;;;;;5132639;27;20521;-81
2023/05/19 01:28:11;;;;;;;4.00;3.70;;;15.90;99.90;;;;;;5116770;28;20412;-81
2023/05/19 01:30:41;;;;;;;4.87;4.40;;;15.80;99.90;;;;;;5132427;27;20804;-86
2023/05/19 01:33:13;;;;;;;6.00;5.10;;;15.80;99.90;;;;;;5116644;28;20487;-86
2023/05/19 01:35:40;;;;;;;6.70;3.90;;;15.90;99.90;;;;;;5116702;28;20420;-86
2023/05/19 01:38:09;;;;;;;4.70;4.13;;;15.90;99.90;;;;;;5132354;27;20781;-86
2023/05/19 01:40:37;;;;;;;4.33;3.93;;;15.80;99.90;;;;;;5116435;28;20432;-86
2023/05/19 01:43:03;;;;;;;4.47;4.07;;;15.80;99.90;;;;;;5098230;28;20404;-81
2023/05/19 01:45:32;;;;;;;5.43;4.27;;;15.70;99.90;;;;;;5097968;28;20443;-81
2023/05/19 01:48:01;;;;;;;7.23;4.57;;;15.70;99.90;;;;;;5132203;27;20404;-81
2023/05/19 01:50:27;;;;;;;5.13;4.73;;;15.50;99.90;;;;;;5116032;28;20499;-86
2023/05/19 01:52:54;;;;;;;4.73;4.13;;;15.60;99.90;;;;;;5116183;28;20482;-81
2023/05/19 01:55:22;;;;;;;4.90;4.50;;;15.60;99.90;;;;;;5115262;28;20420;-81
2023/05/19 01:58:11;;;;;;;5.07;4.10;;;15.70;99.90;;;;;;5116115;28;20404;-81
2023/05/19 02:00:46;;;;;;;8.93;4.40;;;15.60;99.90;;;;;;5131820;27;20530;-86
2023/05/19 02:03:14;;;;;;;6.97;4.40;;;15.60;99.90;;;;;;5133144;27;20400;-85
2023/05/19 02:05:49;;;;;;;5.67;4.30;;;15.50;99.90;;;;;;5115833;28;20788;-86
2023/05/19 02:08:24;;;;;;;8.10;5.00;;;15.40;99.90;;;;;;5115990;28;20392;-86
2023/05/19 02:10:56;;;;;;;7.83;5.13;;;15.50;99.90;;;;;;5131680;27;20451;-86
2023/05/19 02:13:26;;;;;;;10.90;5.97;;;15.30;99.90;;;;;;5115947;28;20435;-81
2023/05/19 02:15:55;;;;;;;7.13;4.40;;;15.30;99.90;;;;;;5115707;28;20456;-86
2023/05/19 02:18:21;;;;;;;4.87;4.10;;;15.30;99.90;;;;;;5115695;28;20400;-81
2023/05/19 02:20:47;;;;;;;4.37;3.97;;;15.20;99.90;;;;;;5115670;28;20469;-81
2023/05/19 02:23:13;;;;;;;5.77;4.07;;;15.20;99.90;;;;;;5131798;27;20924;-81
2023/05/19 02:25:38;;;;;;;4.97;4.57;;;15.30;99.90;;;;;;5131333;27;20446;-86
2023/05/19 02:28:05;;;;;;;5.70;5.20;;;15.10;99.90;;;;;;5115627;28;20207;-81
2023/05/19 02:30:31;;;;;;;8.23;4.50;;;15.10;99.90;;;;;;5115265;28;20240;-86
2023/05/19 02:32:57;;;;;;;4.37;3.90;;;15.10;99.90;;;;;;5115414;28;20787;-85
2023/05/19 02:35:22;;;;;;;5.23;4.43;;;15.10;99.90;;;;;;5096975;28;20203;-85
2023/05/19 02:37:48;;;;;;;5.23;4.23;;;15.10;99.90;;;;;;5097034;28;20667;-84
2023/05/19 02:40:14;;;;;;;5.00;3.80;;;15.00;99.90;;;;;;5115226;28;20262;-81
2023/05/19 02:42:39;;;;;;;4.23;3.83;;;14.90;99.90;;;;;;5131040;27;20203;-86
2023/05/19 02:45:06;;;;;;;5.00;3.80;;;14.90;99.90;;;;;;5096841;28;20188;-86
2023/05/19 02:47:31;;;;;;;4.73;4.07;;;14.80;99.90;;;;;;5131319;27;20203;-81
2023/05/19 02:49:57;;;;;;;4.47;4.07;;;14.80;99.90;;;;;;5115042;28;20431;-86
2023/05/19 02:52:23;;;;;;;7.60;4.70;;;14.80;99.90;;;;;;5096890;28;20179;-84
2023/05/19 02:54:48;;;;;;;4.73;4.33;;;14.80;99.90;;;;;;5114955;28;20247;-81
2023/05/19 02:57:14;;;;;;;4.30;3.90;;;14.80;99.90;;;;;;5131294;27;20172;-85
2023/05/19 02:59:41;;;;;;;4.30;3.90;;;14.70;99.90;;;;;;5114989;28;20672;-81
2023/05/19 03:02:07;;;;;;;5.10;4.40;;;14.70;99.90;;;;;;5115112;28;20532;-81
2023/05/19 03:04:40;;;;;;;4.50;4.03;;;14.60;99.90;;;;;;5114769;28;20400;-86
2023/05/19 03:07:06;;;;;;;5.03;4.13;;;14.60;99.90;;;;;;5114900;28;20187;-85
2023/05/19 03:09:31;;;;;;;5.50;4.77;;;14.50;99.90;;;;;;5096478;28;20967;-85
2023/05/19 03:12:02;;;;;;;4.97;4.47;;;14.50;99.90;;;;;;5096441;28;20439;-86
2023/05/19 03:14:28;;;;;;;7.83;4.40;;;14.50;99.90;;;;;;5130621;27;20213;-86
2023/05/19 03:16:58;;;;;;;4.77;3.87;;;14.70;99.90;;;;;;5130480;27;20570;-86
2023/05/19 03:19:24;;;;;;;6.50;4.50;;;14.80;99.90;;;;;;5114454;28;20968;-81
2023/05/19 03:21:50;;;;;;;5.27;4.77;;;14.80;99.90;;;;;;5130661;27;20551;-81
2023/05/19 03:24:16;;;;;;;5.67;4.50;;;14.80;99.90;;;;;;5114497;28;20424;-83
2023/05/19 03:26:42;;;;;;;8.53;4.87;;;14.80;99.90;;;;;;5130458;27;20672;-85
2023/05/19 03:29:07;;;;;;;5.23;4.73;;;14.80;99.90;;;;;;5114387;28;20400;-80
2023/05/19 03:31:33;;;;;;;4.20;3.80;;;14.70;99.90;;;;;;5130318;27;20632;-83
2023/05/19 03:33:59;;;;;;;9.90;4.80;;;14.70;99.90;;;;;;5114432;28;20168;-80
2023/05/19 03:36:30;;;;;;;4.57;4.10;;;14.70;99.90;;;;;;5114565;28;20188;-85
2023/05/19 03:38:57;;;;;;;4.50;4.10;;;14.80;99.90;;;;;;5114248;28;20199;-85
2023/05/19 03:41:22;;;;;;;4.93;4.43;;;14.70;99.90;;;;;;5096037;28;20454;-85
2023/05/19 03:43:48;;;;;;;5.90;3.60;;;14.70;99.90;;;;;;5114123;28;20404;-84
2023/05/19 03:46:13;;;;;;;5.30;4.70;;;14.60;99.90;;;;;;5128700;27;20199;-85
2023/05/19 03:48:40;;;;;;;5.07;4.50;;;14.60;99.90;;;;;;5114246;28;20557;-84
2023/05/19 03:51:06;;;;;;;5.83;4.97;;;14.70;99.90;;;;;;5095663;28;20570;-79
2023/05/19 03:53:31;;;;;;;10.13;7.03;;;14.70;99.90;;;;;;5114148;28;20400;-84
2023/05/19 03:55:58;;;;;;;7.53;5.80;;;14.60;99.90;;;;;;5114094;28;20526;-79
2023/05/19 03:58:24;;;;;;;6.53;5.40;;;14.50;99.90;;;;;;5093999;28;20171;-85
2023/05/19 04:00:49;;;;;;;6.10;4.93;;;14.70;99.90;;;;;;5094913;28;20842;-80
2023/05/19 04:03:15;;;;;;;8.17;5.07;;;14.70;99.90;;;;;;5112250;28;20416;-84
2023/05/19 04:05:41;;;;;;;5.70;5.03;;;14.80;99.90;;;;;;5112405;28;20198;-85
2023/05/19 04:08:06;;;;;;;5.73;4.90;;;14.90;99.90;;;;;;5093511;28;20217;-82
2023/05/19 04:10:32;;;;;;;4.47;4.07;;;15.00;99.90;;;;;;5093497;28;20195;-80
2023/05/19 04:12:58;;;;;;;5.63;4.43;;;15.00;99.90;;;;;;5093417;28;20183;-80
2023/05/19 04:15:24;;;;;;;5.27;4.60;;;15.10;99.90;;;;;;5093446;28;20254;-84
2023/05/19 04:17:50;;;;;;;5.60;5.10;;;15.20;99.90;;;;;;5094437;28;20179;-85
2023/05/19 04:20:15;;;;;;;5.77;5.03;;;15.20;99.90;;;;;;5098814;28;20984;-80
2023/05/19 04:22:41;;;;;;;5.60;4.97;;;15.20;99.90;;;;;;5098570;28;20183;-80
2023/05/19 04:25:07;;;;;;;5.90;5.23;;;15.30;99.90;;;;;;5117685;28;20266;-85
2023/05/19 04:27:37;;;;;;;4.93;4.37;;;15.30;99.90;;;;;;5098592;28;20704;-80
2023/05/19 04:30:04;;;;;;;5.13;4.63;;;15.30;99.90;;;;;;5079406;28;20441;-84
2023/05/19 04:32:30;;;;;;;5.10;4.60;;;15.40;99.90;;;;;;5105680;28;20423;-80
2023/05/19 04:34:57;;;;;;;22.60;13.23;;;15.40;99.90;;;;;;5099411;28;20420;-80
2023/05/19 04:37:24;;;;;;;7.90;6.47;;;15.50;99.90;;;;;;5099871;28;20666;-84
2023/05/19 04:39:51;;;;;;;8.63;5.80;;;15.60;99.90;;;;;;5116783;28;20803;-80
2023/05/19 04:42:18;;;;;;;7.80;5.17;;;15.70;99.90;;;;;;5098983;28;20784;-85
2023/05/19 04:44:44;;;;;;;4.93;4.47;;;15.70;99.90;;;;;;5117487;28;20813;-84
2023/05/19 04:47:10;;;;;;;4.87;4.47;;;15.80;99.90;;;;;;5099114;28;20420;-85
2023/05/19 04:49:38;;;;;;;5.70;4.70;;;15.80;99.90;;;;;;5099350;28;20419;-81
2023/05/19 04:52:05;;;;;;;5.80;4.90;;;15.90;99.90;;;;;;5099147;28;20672;-81
2023/05/19 04:54:31;;;;;;;7.80;5.10;;;15.80;99.90;;;;;;5098964;28;20543;-85
2023/05/19 04:56:57;;;;;;;6.50;5.03;;;15.90;99.90;;;;;;5114034;28;20538;-86
2023/05/19 04:59:22;;;;;;;4.93;4.43;;;15.90;99.90;;;;;;5097545;28;20210;-84
2023/05/19 05:01:48;;;;;;;11.03;5.20;;;15.90;99.90;;;;;;5116066;28;20223;-85
2023/05/19 05:04:13;;;;;;;8.00;5.87;;;15.90;99.90;;;;;;5116966;28;20629;-81
2023/05/19 05:06:41;;;;;;;6.27;5.43;;;16.00;99.90;;;;;;5105082;28;20632;-85
2023/05/19 05:09:06;;;;;;;5.63;4.87;;;16.00;99.90;;;;;;5110307;28;20167;-80
2023/05/19 05:11:32;;;;;;;6.17;5.20;;;16.00;99.90;;;;;;5114894;28;20983;-81
2023/05/19 05:13:58;;;;;;;5.40;4.20;;;16.10;99.90;;;;;;5098708;28;20211;-84
2023/05/19 05:16:25;;;;;;;5.20;4.30;;;16.10;99.90;;;;;;5116005;28;20696;-80
2023/05/19 05:18:51;;;;;;;5.87;5.27;;;16.10;99.90;;;;;;5115339;28;20501;-85
2023/05/19 05:21:17;;;;;;;5.37;4.87;;;16.10;99.90;;;;;;5110798;28;20452;-81
2023/05/19 05:23:43;;;;;;;4.93;4.40;;;16.20;99.90;;;;;;5098328;28;20423;-85
2023/05/19 05:26:18;;;;;;;4.73;4.20;;;16.20;99.90;;;;;;5092067;28;20444;-81
2023/05/19 05:28:44;;;;;;;4.80;4.40;;;16.10;99.90;;;;;;5115295;28;20407;-85
2023/05/19 05:31:10;;;;;;;5.03;4.40;;;16.10;99.90;;;;;;5107695;28;20985;-80
2023/05/19 05:33:37;;;;;;;6.57;4.73;;;15.90;99.90;;;;;;5097060;28;20444;-81
2023/05/19 05:36:03;;;;;;;5.40;4.23;;;15.90;99.90;;;;;;5116256;28;20458;-81
2023/05/19 05:38:29;;;;;;;5.30;4.27;;;15.90;99.90;;;;;;5091908;28;20547;-85
2023/05/19 05:40:55;;;;;;;5.80;5.20;;;15.90;99.90;;;;;;5095253;28;20831;-81
2023/05/19 05:43:20;;;;;;;10.80;5.77;;;16.00;99.90;;;;;;5097524;28;20507;-83
2023/05/19 05:45:46;;;;;;;5.80;4.23;;;16.00;99.90;;;;;;5097184;28;20568;-85
2023/05/19 05:48:12;;;;;;;6.03;5.03;;;16.00;99.90;;;;;;5116125;28;20176;-84
2023/05/19 05:50:38;;;;;;;6.30;4.50;;;16.00;99.90;;;;;;5109718;28;20203;-80
2023/05/19 05:53:06;;;;;;;6.33;4.70;;;16.00;99.90;;;;;;5109336;28;20407;-81
2023/05/19 05:55:32;;;;;;;5.40;4.90;;;16.00;99.90;;;;;;5114967;28;20425;-86
2023/05/19 05:58:00;;;;;;;5.80;4.63;;;16.00;99.90;;;;;;5096350;28;20436;-80
2023/05/19 06:00:27;;;;;;;4.90;4.40;;;16.00;99.90;;;;;;5109377;28;20463;-85
2023/05/19 06:02:53;;;;;;;6.13;4.73;;;16.10;99.90;;;;;;5110562;28;20469;-80
2023/05/19 06:05:18;;;;;;;5.93;4.30;;;16.20;99.90;;;;;;5091599;28;20963;-80
2023/05/19 06:07:44;;;;;;;6.40;4.90;;;16.30;99.90;;;;;;5112035;28;20720;-81
2023/05/19 06:10:10;;;;;;;4.80;4.30;;;16.40;99.90;;;;;;5112076;28;20455;-84
2023/05/19 06:12:39;;;;;;;5.00;4.50;;;16.50;99.90;;;;;;5112530;28;20172;-80
2023/05/19 06:15:06;;;;;;;5.77;4.50;;;16.50;99.90;;;;;;5094303;28;20496;-81
2023/05/19 06:17:34;;;;;;;5.43;4.50;;;16.60;99.90;;;;;;5112899;27;20455;-85
2023/05/19 06:20:00;;;;;;;7.40;4.73;;;16.60;99.90;;;;;;5097039;28;20475;-85
2023/05/19 06:22:26;;;;;;;5.23;4.70;;;16.60;99.90;;;;;;5112676;28;20900;-80
2023/05/19 06:24:52;;;;;;;8.47;4.87;;;16.60;99.90;;;;;;5124928;27;20705;-80
2023/05/19 06:27:18;;;;;;;7.93;4.77;;;16.60;99.90;;;;;;5112119;28;20475;-81
2023/05/19 06:29:43;;;;;;;5.43;4.90;;;16.70;99.90;;;;;;5109965;28;20172;-79
2023/05/19 06:32:09;;;;;;;6.63;5.10;;;16.80;99.90;;;;;;5108850;28;20612;-79
2023/05/19 06:34:37;;;;;;;6.77;5.87;;;16.80;99.90;;;;;;5109195;28;20546;-80
2023/05/19 06:37:03;;;;;;;5.57;4.97;;;16.90;99.90;;;;;;5092413;28;20191;-85
2023/05/19 06:39:28;;;;;;;5.60;5.10;;;16.90;99.90;;;;;;5092586;28;20993;-80
2023/05/19 06:41:54;;;;;;;5.43;4.63;;;16.90;99.90;;;;;;5109051;28;20459;-84
2023/05/19 06:44:20;;;;;;;5.57;5.00;;;17.00;99.90;;;;;;5108203;28;20195;-84
2023/05/19 06:46:45;;;;;;;8.00;5.83;;;17.00;99.90;;;;;;5112248;27;20203;-85
2023/05/19 06:49:11;;;;;;;6.20;5.07;;;17.10;99.90;;;;;;5088614;28;20743;-84
2023/05/19 06:51:36;;;;;;;7.03;5.50;;;17.10;99.90;;;;;;5091375;28;20670;-82
2023/05/19 06:54:02;;;;;;;5.97;5.20;;;17.10;99.90;;;;;;5108816;28;20256;-82
2023/05/19 06:56:28;;;;;;;7.17;4.90;;;17.10;99.90;;;;;;5109300;28;20287;-81
2023/05/19 06:58:53;;;;;;;7.77;6.60;;;17.20;99.90;;;;;;5092816;28;20268;-84
2023/05/19 07:01:19;;;;;;;8.63;4.80;;;17.30;99.90;;;;;;5092548;28;20680;-82
2023/05/19 07:03:45;;;;;;;5.50;4.60;;;17.40;99.90;;;;;;5092271;28;20274;-86
2023/05/19 07:06:12;;;;;;;5.37;4.87;;;17.40;99.90;;;;;;5110912;28;20615;-81
2023/05/19 07:08:37;;;;;;;5.93;5.30;;;17.50;99.90;;;;;;5112256;28;20430;-82
2023/05/19 07:11:03;;;;;;;5.80;5.00;;;17.60;99.90;;;;;;5091190;28;20886;-81
2023/05/19 07:13:29;;;;;;;7.53;5.60;;;17.70;99.90;;;;;;5103067;28;20181;-82
2023/05/19 07:15:55;;;;;;;6.33;5.03;;;17.80;99.90;;;;;;5087018;28;20487;-86
2023/05/19 07:18:21;;;;;;;5.20;4.53;;;17.80;99.90;;;;;;5084173;28;20172;-85
2023/05/19 07:20:48;;;;;;;4.57;4.17;;;17.90;99.90;;;;;;5100767;28;20215;-87
2023/05/19 07:23:13;;;;;;;6.00;4.33;;;17.90;99.90;;;;;;5088832;28;20421;-86
2023/05/19 07:25:39;;;;;;;6.60;4.90;;;17.90;99.90;;;;;;5092442;28;20554;-86
2023/05/19 07:28:05;;;;;;;6.20;4.57;;;18.00;99.90;;;;;;5096491;28;20203;-82
2023/05/19 07:30:30;;;;;;;6.67;4.70;;;18.10;99.90;;;;;;5114411;27;20214;-81
2023/05/19 07:32:56;;;;;;;8.23;5.63;;;18.20;99.90;;;;;;5093463;28;20184;-80
2023/05/19 07:35:22;;;;;;;7.50;3.83;;;18.30;99.90;;;;;;5111879;28;20555;-86
2023/05/19 07:37:48;;;;;;;5.60;4.80;;;18.30;99.90;;;;;;5094603;28;20184;-80
2023/05/19 07:40:14;;;;;;;6.37;4.77;;;18.30;99.90;;;;;;5112364;28;20470;-86
2023/05/19 07:42:40;;;;;;;6.83;5.43;;;18.40;99.90;;;;;;5110982;28;20436;-81
2023/05/19 07:45:07;;;;;;;7.60;4.70;;;18.50;99.90;;;;;;5087788;28;20193;-81
2023/05/19 07:47:36;;;;;;;9.97;4.90;;;18.60;99.90;;;;;;5110576;28;20417;-80
2023/05/19 07:50:02;;;;;;;8.57;4.57;;;18.70;99.90;;;;;;5109911;28;20445;-85
2023/05/19 07:52:28;;;;;;;5.67;4.90;;;18.80;99.90;;;;;;5091906;28;20418;-85
2023/05/19 07:54:53;;;;;;;5.37;4.10;;;18.80;99.90;;;;;;5108788;28;20426;-86
2023/05/19 07:57:19;;;;;;;4.90;4.50;;;19.00;99.90;;;;;;5112193;28;20185;-86
2023/05/19 07:59:45;;;;;;;5.80;4.73;;;19.00;99.90;;;;;;5093438;28;20209;-81
2023/05/19 08:02:10;;;;;;;5.03;4.57;;;19.10;99.90;;;;;;5093482;28;20615;-87
2023/05/19 08:04:36;;;;;;;9.33;5.60;;;19.10;99.90;;;;;;5093388;28;20192;-85
2023/05/19 08:07:02;;;;;;;5.20;4.50;;;19.10;99.90;;;;;;5095134;28;20182;-86
2023/05/19 08:09:28;;;;;;;6.53;5.07;;;19.20;99.90;;;;;;5126237;28;20205;-81
2023/05/19 08:11:53;;;;;;;5.93;4.57;;;19.20;99.90;;;;;;5091231;28;20471;-81
2023/05/19 08:14:21;;;;;;;5.40;4.90;;;19.20;99.90;;;;;;5105249;28;20173;-80
2023/05/19 08:16:47;;;;;;;5.80;4.50;;;19.30;99.90;;;;;;5106764;28;20231;-80
2023/05/19 08:19:13;;;;;;;5.57;5.07;;;19.40;99.90;;;;;;5107231;28;20530;-86
2023/05/19 08:21:41;;;;;;;9.40;5.70;;;19.50;99.90;;;;;;5088938;28;20460;-81
2023/05/19 08:24:07;;;;;;;5.90;4.77;;;19.60;99.90;;;;;;5100029;28;20818;-86
2023/05/19 08:26:33;;;;;;;9.67;4.63;;;19.70;99.90;;;;;;5109626;28;20453;-87
2023/05/19 08:28:59;;;;;;;6.57;5.57;;;19.70;99.90;;;;;;5108390;28;20408;-85
2023/05/19 08:31:24;;;;;;;5.67;3.87;;;19.80;99.90;;;;;;5094707;28;20447;-82
2023/05/19 08:33:50;;;;;;;6.10;5.60;;;19.80;99.90;;;;;;5127819;28;20212;-82
2023/05/19 08:36:16;;;;;;;5.40;4.23;;;20.00;99.90;;;;;;5093748;28;20253;-81
2023/05/19 08:38:42;;;;;;;4.43;3.83;;;20.00;99.90;;;;;;5111485;28;20241;-83
2023/05/19 08:41:07;;;;;;;6.40;4.67;;;20.10;99.90;;;;;;5108828;28;20494;-87
2023/05/19 08:43:33;;;;;;;5.60;4.90;;;20.10;99.90;;;;;;5114215;28;20179;-83
2023/05/19 08:46:00;;;;;;;6.47;5.07;;;20.20;99.90;;;;;;5101354;28;20203;-81
2023/05/19 08:48:28;;;;;;;13.73;4.80;;;20.30;99.90;;;;;;5110625;28;20432;-81
2023/05/19 08:51:35;;;;;;;4.83;4.37;;;20.40;99.90;;;;;;5090535;28;20868;-86
2023/05/19 08:54:16;;;;;;;4.57;4.17;;;20.50;99.90;;;;;;5043171;28;20830;-81
2023/05/19 08:56:46;;;;;;;6.40;4.30;;;20.60;99.90;;;;;;5115776;27;20466;-87
2023/05/19 08:59:13;;;;;;;6.70;5.13;;;20.70;99.90;;;;;;5109431;28;20455;-86
2023/05/19 09:01:43;;;;;;;6.10;4.87;;;20.80;99.90;;;;;;5090770;28;20480;-85
2023/05/19 09:04:09;;;;;;;4.93;4.50;;;20.80;99.90;;;;;;5087259;28;20419;-80
2023/05/19 09:06:35;;;;;;;4.60;4.00;;;20.80;99.90;;;;;;5094455;28;20448;-80
2023/05/19 09:09:00;;;;;;;5.50;4.37;;;20.80;99.90;;;;;;5113399;28;20820;-82
2023/05/19 09:11:26;;;;;;;7.07;4.50;;;20.70;99.90;;;;;;5115742;28;20212;-86
2023/05/19 09:13:52;;;;;;;5.80;4.07;;;20.70;99.90;;;;;;5115829;28;20175;-81
2023/05/19 09:16:18;;;;;;;5.40;4.90;;;20.80;99.90;;;;;;5113635;28;20238;-86
2023/05/19 09:18:57;;;;;;;3.80;3.50;;;20.90;99.90;;;;;;5097050;28;20831;-83
2023/05/19 09:21:29;;;;;;;236.57;130.93;;;21.00;99.90;;;;;;5095705;28;20203;-86
2023/05/19 09:23:57;;;;;;;7.23;5.90;;;21.00;99.90;;;;;;5083800;28;20432;-81
2023/05/19 09:26:22;;;;;;;11.80;9.43;;;21.10;99.90;;;;;;5112899;28;20833;-80
2023/05/19 09:28:48;;;;;;;8.70;4.63;;;21.20;99.90;;;;;;5096428;28;20427;-81
2023/05/19 09:31:14;;;;;;;6.60;4.93;;;21.20;99.90;;;;;;5095210;28;20215;-86
2023/05/19 09:33:42;;;;;;;7.43;4.33;;;21.20;99.90;;;;;;5093103;28;20237;-84
2023/05/19 09:36:09;;;;;;;6.00;5.40;;;21.20;99.90;;;;;;5113141;28;20509;-86
2023/05/19 09:38:36;;;;;;;6.20;4.90;;;21.20;99.90;;;;;;5109411;28;20420;-86
2023/05/19 09:41:03;;;;;;;5.60;5.10;;;21.20;99.90;;;;;;5112064;28;20458;-81
2023/05/19 09:43:32;;;;;;;4.43;4.00;;;21.30;99.90;;;;;;5113544;27;20503;-86
2023/05/19 09:46:05;;;;;;;8.23;6.67;;;21.30;99.90;;;;;;5111894;28;20460;-87
2023/05/19 09:48:31;;;;;;;4.77;4.37;;;21.40;99.90;;;;;;5082925;28;20836;-86
2023/05/19 09:50:57;;;;;;;4.70;4.20;;;21.40;99.90;;;;;;5114226;28;20939;-81
2023/05/19 09:53:24;;;;;;;4.63;4.00;;;21.40;99.90;;;;;;5110706;28;20407;-81
2023/05/19 09:55:54;;;;;;;6.30;4.83;;;21.50;99.90;;;;;;5091858;28;20290;-81
2023/05/19 09:58:20;;;;;;;6.40;4.17;;;21.50;99.90;;;;;;5111910;28;20416;-81
2023/05/19 10:00:47;;;;;;;5.77;4.43;;;21.50;99.90;;;;;;5094119;28;20482;-81
2023/05/19 10:03:13;;;;;;;4.90;4.40;;;21.60;99.90;;;;;;5105789;28;21234;-85
2023/05/19 10:05:41;;;;;;;6.07;4.87;;;21.60;99.90;;;;;;5100077;27;20782;-86
2023/05/19 10:08:09;;;;;;;6.10;5.07;;;21.60;99.90;;;;;;5092450;28;20428;-86
2023/05/19 10:10:36;;;;;;;9.50;5.53;;;21.70;99.90;;;;;;5108998;28;20489;-81
2023/05/19 10:13:03;;;;;;;6.63;4.73;;;21.70;99.90;;;;;;5090746;28;20510;-86
2023/05/19 10:15:29;;;;;;;4.60;3.73;;;21.80;99.90;;;;;;5089360;28;21144;-81
2023/05/19 10:17:55;;;;;;;4.90;4.40;;;21.80;99.90;;;;;;5099220;28;21178;-86
2023/05/19 10:20:21;;;;;;;6.20;5.07;;;21.90;99.90;;;;;;5084906;28;20483;-86
2023/05/19 10:22:47;;;;;;;6.20;4.80;;;22.00;99.90;;;;;;5088648;28;20436;-86
2023/05/19 10:25:17;;;;;;;5.80;4.10;;;22.00;99.90;;;;;;5109925;28;20432;-85
2023/05/19 10:28:06;;;;;;;4.90;4.40;;;22.00;99.90;;;;;;5097563;27;20450;-81
2023/05/19 10:30:35;;;;;;;5.50;4.77;;;22.00;99.90;;;;;;5096422;28;20447;-86
2023/05/19 10:33:03;;;;;;;5.10;4.60;;;22.00;99.90;;;;;;5093698;28;20817;-86
2023/05/19 10:35:47;;;;;;;4.77;4.37;;;22.00;99.90;;;;;;5105774;27;20449;-85
2023/05/19 10:38:28;;;;;;;6.40;4.67;;;22.10;99.90;;;;;;5124630;27;20431;-81
2023/05/19 10:41:27;;;;;;;5.27;4.40;;;22.10;99.90;;;;;;5098293;28;20463;-87
2023/05/19 10:44:45;;;;;;;5.83;4.50;;;22.00;99.90;;;;;;5112591;28;20476;-81
2023/05/19 10:47:10;;;;;;;5.20;4.60;;;21.90;99.90;;;;;;5095654;27;20506;-81
2023/05/19 10:49:36;;;;;;;5.40;4.90;;;21.90;99.90;;;;;;5111304;27;20444;-87
2023/05/19 10:52:03;;;;;;;4.93;4.43;;;21.90;99.90;;;;;;5085668;28;20184;-81
2023/05/19 10:54:46;;;;;;;6.43;5.20;;;21.90;99.90;;;;;;5093900;27;20430;-85
2023/05/19 10:57:16;;;;;;;5.90;5.13;;;21.80;99.90;;;;;;5110177;27;20427;-86
2023/05/19 10:59:46;;;;;;;4.83;4.33;;;21.80;99.90;;;;;;5112780;27;20470;-87
2023/05/19 11:02:38;;;;;;;5.80;4.93;;;21.80;99.90;;;;;;5093336;27;20438;-86
2023/05/19 11:05:17;;;;;;;5.63;5.13;;;21.80;99.90;;;;;;5107234;28;20996;-81
2023/05/19 11:08:03;;;;;;;6.50;5.90;;;21.80;99.90;;;;;;5090145;28;20988;-85
2023/05/19 11:10:29;;;;;;;7.40;4.80;;;21.80;99.90;;;;;;5108461;27;20454;-86
2023/05/19 11:12:56;;;;;;;8.77;5.37;;;21.80;99.90;;;;;;5103970;28;20433;-80
2023/05/19 11:15:26;;;;;;;5.00;4.50;;;21.80;99.90;;;;;;5092224;27;20923;-81
2023/05/19 11:17:52;;;;;;;6.03;5.03;;;21.90;99.90;;;;;;5103805;27;20519;-86
2023/05/19 11:20:29;;;;;;;6.47;5.13;;;22.00;99.90;;;;;;5083429;28;20902;-86
2023/05/19 11:23:04;;;;;;;5.33;4.63;;;22.00;99.90;;;;;;5102739;27;20936;-81
2023/05/19 11:25:43;;;;;;;6.80;5.60;;;22.10;99.90;;;;;;5082892;28;20484;-86
2023/05/19 11:28:15;;;;;;;5.87;5.30;;;22.20;99.90;;;;;;5101790;27;20424;-86
2023/05/19 11:30:43;;;;;;;5.73;4.73;;;22.20;99.90;;;;;;5098025;27;21079;-81
2023/05/19 11:33:09;;;;;;;5.53;4.80;;;22.30;99.90;;;;;;5088237;28;20405;-86
2023/05/19 11:35:35;;;;;;;6.10;5.00;;;22.30;99.90;;;;;;5106110;27;20451;-86
2023/05/19 11:38:04;;;;;;;4.93;4.47;;;22.40;99.90;;;;;;5094561;28;20538;-80
2023/05/19 11:40:30;;;;;;;5.40;5.00;;;22.50;99.90;;;;;;5098790;28;20487;-80
2023/05/19 11:43:05;;;;;;;5.00;4.50;;;22.60;99.90;;;;;;5109007;27;20427;-81
2023/05/19 11:45:31;;;;;;;6.10;4.90;;;22.60;99.90;;;;;;5114139;27;20588;-81
2023/05/19 11:47:57;;;;;;;7.07;5.90;;;22.70;99.90;;;;;;5099733;27;20412;-81
2023/05/19 11:50:24;;;;;;;4.73;4.30;;;22.80;99.90;;;;;;5105113;28;20455;-81
2023/05/19 11:52:53;;;;;;;6.43;5.40;;;22.80;99.90;;;;;;5108091;28;20434;-81
2023/05/19 11:55:22;;;;;;;5.43;4.90;;;22.90;99.90;;;;;;5099963;28;20462;-81
2023/05/19 11:57:58;;;;;;;6.43;4.67;;;22.90;99.90;;;;;;5102258;28;20431;-85
2023/05/19 12:00:25;;;;;;;6.57;5.10;;;23.00;99.90;;;;;;5101007;28;20467;-86
2023/05/19 12:02:51;;;;;;;7.37;5.30;;;22.90;99.90;;;;;;5095267;28;20432;-80
2023/05/19 12:05:24;;;;;;;7.13;5.43;;;22.90;99.90;;;;;;5096804;28;20833;-86
2023/05/19 12:07:51;;;;;;;6.57;5.03;;;23.00;99.90;;;;;;5087786;28;20786;-86
2023/05/19 12:10:25;;;;;;;5.77;4.97;;;22.90;99.90;;;;;;5087515;28;20454;-81
2023/05/19 12:12:50;;;;;;;6.40;5.10;;;23.00;99.90;;;;;;5107363;28;20454;-86
2023/05/19 12:15:23;;;;;;;6.40;5.80;;;23.00;99.90;;;;;;5102109;28;21033;-81
2023/05/19 12:18:01;;;;;;;5.53;5.03;;;23.10;99.90;;;;;;5124632;28;20471;-86
2023/05/19 12:20:30;;;;;;;8.57;7.47;;;23.10;99.90;;;;;;5082772;28;20654;-81
2023/05/19 12:22:57;;;;;;;6.33;5.73;;;23.20;99.90;;;;;;5081130;28;20427;-81
2023/05/19 12:25:23;;;;;;;9.23;7.73;;;23.30;99.90;;;;;;5095392;28;20462;-81
2023/05/19 12:27:51;;;;;;;7.07;6.20;;;23.30;99.90;;;;;;5087927;28;20560;-86
2023/05/19 12:30:17;;;;;;;5.70;5.10;;;23.40;99.90;;;;;;5108535;27;20813;-80
2023/05/19 12:32:45;;;;;;;7.37;6.77;;;23.40;99.90;;;;;;5107316;28;20528;-81
2023/05/19 12:35:10;;;;;;;11.30;10.33;;;23.50;99.90;;;;;;5099027;28;20450;-81
2023/05/19 12:37:40;;;;;;;7.47;6.40;;;23.50;99.90;;;;;;5087880;28;21006;-86
2023/05/19 12:40:08;;;;;;;8.33;6.07;;;23.50;99.90;;;;;;5087073;28;20558;-86
2023/05/19 12:42:34;;;;;;;5.33;4.87;;;23.50;99.90;;;;;;5110598;27;20440;-86
2023/05/19 12:45:01;;;;;;;10.43;6.30;;;23.60;99.90;;;;;;5126256;27;20455;-81
2023/05/19 12:47:34;;;;;;;6.80;6.20;;;23.70;99.90;;;;;;5116957;27;20430;-86
2023/05/19 12:50:08;;;;;;;6.47;5.80;;;23.70;99.90;;;;;;5105238;28;20460;-85